Time;durP1;ratioP1;P1;durP2;ratioP2;P2;SDS_P1;SDS_P2;PMS_P1;PMS_P2;Temp;Humidity;BMP_temperature;BMP_pressure;BME280_temperature;BME280_humidity;BME280_pressure;Samples;Min_cycle;Max_cycle;Signal;HPM_P1;HPM_P2
2022/04/26 03:38:14;;;;;;;2.90;1.05;;;8.80;79.40;;;;;;4997024;28;20049;-89
2022/04/26 03:40:47;;;;;;;3.67;0.93;;;8.80;79.40;;;;;;4998012;28;20136;-88
2022/04/26 03:43:16;;;;;;;2.10;1.13;;;8.80;79.50;;;;;;5013451;28;20034;-89
2022/04/26 03:46:04;;;;;;;;;;;;;;;;;;;;;
2022/04/26 03:48:39;;;;;;;2.00;1.00;;;8.90;79.60;;;;;;5000895;28;20053;-88
2022/04/26 03:51:12;;;;;;;2.15;1.13;;;8.90;79.60;;;;;;4997555;28;20499;-88
2022/04/26 03:53:42;;;;;;;3.03;0.90;;;9.00;79.80;;;;;;5000395;28;20061;-88
2022/04/26 03:56:20;;;;;;;;;;;;;;;;;;;;;
2022/04/26 03:59:25;;;;;;;2.93;1.17;;;9.00;79.80;;;;;;4996815;28;20042;-88
2022/04/26 04:02:00;;;;;;;2.80;1.40;;;9.00;79.90;;;;;;5000743;28;20300;-88
2022/04/26 04:04:30;;;;;;;4.13;1.42;;;9.00;80.00;;;;;;5016837;28;20049;-88
2022/04/26 04:07:06;;;;;;;3.58;1.65;;;8.90;80.10;;;;;;4996257;28;20096;-88
2022/04/26 04:09:55;;;;;;;;;;;;;;;;;;;;;
2022/04/26 04:12:26;;;;;;;;;;;9.00;80.40;;;;;;5013361;28;20042;-89
2022/04/26 04:14:56;;;;;;;2.53;1.10;;;8.90;80.40;;;;;;4979221;28;19960;-88
2022/04/26 04:17:27;;;;;;;5.20;1.38;;;8.90;80.50;;;;;;4989066;28;20137;-88
2022/04/26 04:19:56;;;;;;;3.50;1.30;;;8.90;80.60;;;;;;5005401;28;20053;-89
2022/04/26 04:22:26;;;;;;;3.25;1.50;;;8.90;80.70;;;;;;5009757;28;20065;-89
2022/04/26 04:24:57;;;;;;;2.28;1.20;;;8.90;80.70;;;;;;4996806;28;20125;-89
2022/04/26 04:27:35;;;;;;;3.10;1.52;;;8.90;80.70;;;;;;4998981;28;20034;-89
2022/04/26 04:30:20;;;;;;;2.80;1.65;;;8.90;80.70;;;;;;4997058;28;20054;-89
2022/04/26 04:32:48;;;;;;;4.45;1.45;;;8.90;80.80;;;;;;4997651;28;20046;-89
2022/04/26 04:35:21;;;;;;;3.15;1.40;;;8.90;80.80;;;;;;5003252;28;20044;-89
2022/04/26 04:37:53;;;;;;;2.95;1.60;;;8.90;80.90;;;;;;5008489;28;20038;-89
2022/04/26 04:40:22;;;;;;;3.67;1.45;;;8.90;81.00;;;;;;5004031;28;20046;-89
2022/04/26 04:42:52;;;;;;;2.28;1.08;;;8.90;81.10;;;;;;4984181;28;20132;-89
2022/04/26 04:45:40;;;;;;;3.45;1.05;;;8.90;81.20;;;;;;4998028;28;20140;-90
2022/04/26 04:48:15;;;;;;;3.55;1.40;;;8.90;81.20;;;;;;5006583;28;20045;-89
2022/04/26 04:50:43;;;;;;;1.90;1.20;;;8.90;81.30;;;;;;5013599;28;20053;-89
2022/04/26 04:53:13;;;;;;;3.28;1.10;;;8.90;81.30;;;;;;4991080;28;20057;-89
2022/04/26 04:55:45;;;;;;;4.78;1.90;;;8.90;81.30;;;;;;4987826;28;20041;-90
2022/04/26 04:58:13;;;;;;;5.10;2.03;;;8.90;81.50;;;;;;4980862;28;20042;-90
2022/04/26 05:00:50;;;;;;;6.30;2.08;;;8.80;81.50;;;;;;4993948;28;20046;-90
2022/04/26 05:03:17;;;;;;;3.25;1.92;;;8.80;81.50;;;;;;4977674;28;20046;-90
2022/04/26 05:05:44;;;;;;;4.72;2.35;;;8.80;81.60;;;;;;4986133;28;20046;-91
2022/04/26 05:08:17;;;;;;;4.28;1.90;;;8.80;81.80;;;;;;4983422;28;20062;-91
2022/04/26 05:10:52;;;;;;;4.43;2.25;;;8.80;81.80;;;;;;5007021;28;20037;-91
2022/04/26 05:13:22;;;;;;;4.35;2.40;;;8.80;81.80;;;;;;4996467;28;20484;-91
2022/04/26 05:15:51;;;;;;;3.67;1.98;;;8.90;81.80;;;;;;4974763;28;20132;-90
2022/04/26 05:18:19;;;;;;;3.22;1.80;;;8.90;81.70;;;;;;5003710;28;20046;-90
2022/04/26 05:20:47;;;;;;;4.45;2.40;;;9.00;81.70;;;;;;5010853;28;20050;-91
2022/04/26 05:26:00;;;;;;;3.88;1.85;;;9.10;81.60;;;;;;4996548;28;20502;-90
2022/04/26 05:28:29;;;;;;;5.22;2.70;;;9.10;81.50;;;;;;4996615;28;20049;-90
2022/04/26 05:30:57;;;;;;;5.38;3.00;;;9.20;81.50;;;;;;5010757;28;20046;-91
2022/04/26 05:33:31;;;;;;;7.35;3.22;;;9.20;81.40;;;;;;5012340;28;20156;-91
2022/04/26 05:35:58;;;;;;;5.70;3.22;;;9.30;81.40;;;;;;5009477;28;20474;-89
2022/04/26 05:38:36;;;;;;;;;;;;;;;;;;;;;
2022/04/26 05:41:06;;;;;;;5.35;3.13;;;9.30;81.40;;;;;;5008617;28;20050;-91
2022/04/26 05:43:39;;;;;;;7.38;3.70;;;9.40;81.40;;;;;;4997685;28;20050;-89
2022/04/26 05:46:16;;;;;;;4.70;3.33;;;9.40;81.40;;;;;;5012785;28;20052;-88
2022/04/26 05:48:44;;;;;;;6.22;3.72;;;9.40;81.30;;;;;;4996596;28;20065;-88
2022/04/26 05:51:12;;;;;;;5.65;2.95;;;9.40;81.30;;;;;;5009731;28;20045;-89
2022/04/26 05:53:44;;;;;;;5.22;3.40;;;9.50;81.20;;;;;;5007263;28;20133;-87
2022/04/26 05:56:12;;;;;;;7.10;3.92;;;9.50;81.20;;;;;;5008299;28;20116;-89
2022/04/26 05:58:39;;;;;;;6.47;3.50;;;9.50;81.30;;;;;;4989876;28;20120;-88
2022/04/26 06:01:07;;;;;;;5.57;3.15;;;9.50;81.20;;;;;;5020663;28;20081;-86
2022/04/26 06:03:39;;;;;;;5.00;3.33;;;9.60;81.10;;;;;;4998155;28;20053;-89
2022/04/26 06:06:47;;;;;;;4.95;3.30;;;9.70;81.00;;;;;;5016315;28;20124;-95
2022/04/26 06:09:49;;;;;;;7.15;3.55;;;9.80;80.70;;;;;;4988584;28;20137;-89
2022/04/26 06:12:23;;;;;;;4.65;2.60;;;9.90;80.50;;;;;;4948868;28;20105;-90
2022/04/26 06:15:46;;;;;;;;;;;;;;;;;;;;;
2022/04/26 06:23:12;;;;;;;6.68;3.55;;;10.00;80.40;;;;;;5014974;28;20116;-91
2022/04/26 06:30:45;;;;;;;4.40;2.90;;;10.00;80.30;;;;;;5012725;28;20840;-87
2022/04/26 06:33:17;;;;;;;4.22;2.55;;;10.10;80.20;;;;;;4987026;28;20052;-90
2022/04/26 06:35:54;;;;;;;6.30;2.97;;;10.10;80.20;;;;;;4978393;28;20056;-88
2022/04/26 06:38:24;;;;;;;5.63;3.10;;;10.20;80.10;;;;;;4995621;28;20104;-87
2022/04/26 06:40:52;;;;;;;6.97;3.25;;;10.20;80.00;;;;;;5006430;28;20046;-88
2022/04/26 06:43:20;;;;;;;5.82;2.67;;;10.20;80.00;;;;;;5001339;28;20089;-87
2022/04/26 06:45:47;;;;;;;4.90;2.47;;;10.30;80.00;;;;;;5005828;28;20042;-88
2022/04/26 06:48:17;;;;;;;4.25;2.65;;;10.40;80.00;;;;;;4998774;28;20050;-89
2022/04/26 06:50:46;;;;;;;5.82;2.30;;;10.40;79.90;;;;;;4996325;28;20429;-88
2022/04/26 06:53:13;;;;;;;3.85;1.80;;;10.50;79.70;;;;;;5010778;28;20406;-88
2022/04/26 06:55:40;;;;;;;6.75;2.22;;;10.60;79.60;;;;;;5015179;28;20076;-87
2022/04/26 06:58:07;;;;;;;4.05;1.85;;;10.70;79.40;;;;;;4999106;28;20049;-90
2022/04/26 07:00:34;;;;;;;7.90;3.13;;;10.70;79.20;;;;;;5004093;28;20046;-87
2022/04/26 07:03:01;;;;;;;6.40;2.50;;;10.80;79.30;;;;;;5000718;28;20046;-88
2022/04/26 07:05:29;;;;;;;5.78;2.92;;;10.70;79.20;;;;;;5010129;28;20034;-87
2022/04/26 07:07:56;;;;;;;5.18;2.30;;;10.70;79.10;;;;;;5011833;28;20441;-88
2022/04/26 07:10:23;;;;;;;4.63;2.40;;;10.70;79.20;;;;;;5016413;28;20085;-86
2022/04/26 07:12:50;;;;;;;5.05;1.95;;;10.70;79.20;;;;;;5009815;28;20551;-88
2022/04/26 07:15:17;;;;;;;6.80;2.75;;;10.80;79.20;;;;;;5003835;28;20126;-88
2022/04/26 07:17:44;;;;;;;4.32;2.33;;;10.80;79.10;;;;;;4999855;28;20050;-88
2022/04/26 07:20:11;;;;;;;4.38;2.65;;;10.80;79.00;;;;;;5012128;28;20065;-87
2022/04/26 07:22:39;;;;;;;7.88;3.42;;;10.80;78.90;;;;;;5003563;28;20498;-87
2022/04/26 07:25:07;;;;;;;4.72;3.05;;;10.80;78.80;;;;;;5015703;28;20132;-88
2022/04/26 07:27:34;;;;;;;3.75;2.42;;;10.70;78.90;;;;;;5009573;28;20046;-89
2022/04/26 07:30:02;;;;;;;5.65;3.28;;;10.70;78.90;;;;;;5015102;28;20060;-89
2022/04/26 07:35:15;;;;;;;5.32;3.08;;;10.50;79.00;;;;;;5016158;28;20073;-89
2022/04/26 07:37:42;;;;;;;5.57;2.88;;;10.40;79.10;;;;;;5010976;28;20111;-87
2022/04/26 07:40:10;;;;;;;6.10;2.97;;;10.30;79.20;;;;;;5018383;28;20053;-89
2022/04/26 07:42:38;;;;;;;4.88;3.00;;;10.30;79.30;;;;;;5017137;28;20054;-90
2022/04/26 07:45:06;;;;;;;6.15;2.90;;;10.20;79.40;;;;;;4998227;28;20486;-89
2022/04/26 07:47:33;;;;;;;5.47;2.42;;;10.20;79.40;;;;;;4988452;28;20081;-90
2022/04/26 07:50:03;;;;;;;3.40;1.88;;;10.20;79.60;;;;;;4997692;28;20042;-90
2022/04/26 07:52:31;;;;;;;3.58;1.85;;;10.20;79.60;;;;;;4997864;28;20132;-89
2022/04/26 07:54:59;;;;;;;3.72;1.75;;;10.10;79.60;;;;;;5010844;28;20045;-87
2022/04/26 07:57:26;;;;;;;4.82;2.17;;;10.10;79.50;;;;;;4993699;28;20053;-89
2022/04/26 07:59:53;;;;;;;2.47;1.33;;;10.20;79.60;;;;;;5013018;28;20045;-89
2022/04/26 08:02:22;;;;;;;2.83;1.38;;;10.20;79.60;;;;;;4997583;28;20046;-88
2022/04/26 08:04:49;;;;;;;3.33;1.30;;;10.20;79.50;;;;;;4998552;28;20038;-89
2022/04/26 08:07:17;;;;;;;3.97;1.85;;;10.30;79.40;;;;;;4992353;28;20042;-89
2022/04/26 08:09:44;;;;;;;5.70;2.13;;;10.40;79.40;;;;;;5014902;28;20050;-88
2022/04/26 08:12:12;;;;;;;7.38;2.63;;;10.40;79.20;;;;;;5005946;28;20614;-89
2022/04/26 08:14:39;;;;;;;6.13;2.38;;;10.50;79.10;;;;;;4989546;28;20054;-88
2022/04/26 08:17:06;;;;;;;3.35;1.73;;;10.50;78.90;;;;;;4983819;28;20050;-90
2022/04/26 08:19:34;;;;;;;3.92;1.88;;;10.50;78.80;;;;;;5014191;28;20047;-89
2022/04/26 08:22:02;;;;;;;6.85;1.95;;;10.60;78.70;;;;;;4983873;28;20442;-89
2022/04/26 08:27:24;;;;;;;2.80;1.45;;;11.00;78.10;;;;;;4970154;28;20049;-89
2022/04/26 08:29:55;;;;;;;2.55;1.35;;;11.10;77.80;;;;;;4978258;28;20062;-89
2022/04/26 08:32:24;;;;;;;4.93;1.75;;;11.20;77.70;;;;;;5011168;28;20147;-89
2022/04/26 08:34:51;;;;;;;2.53;1.13;;;11.20;77.70;;;;;;4990923;28;20058;-89
2022/04/26 08:37:18;;;;;;;2.95;1.15;;;11.20;77.70;;;;;;4993596;28;20054;-88
2022/04/26 08:39:46;;;;;;;2.63;1.40;;;11.30;77.60;;;;;;4999800;28;20124;-89
2022/04/26 08:42:14;;;;;;;2.13;1.08;;;11.40;77.20;;;;;;4997062;28;20069;-88
2022/04/26 08:44:41;;;;;;;4.03;1.30;;;11.60;76.90;;;;;;4993870;28;20110;-87
2022/04/26 08:52:47;;;;;;;3.88;2.35;;;12.20;74.40;;;;;;5005295;28;20090;-87
2022/04/26 08:55:16;;;;;;;4.47;1.70;;;12.40;73.60;;;;;;4987333;28;20094;-89
2022/04/26 08:57:43;;;;;;;4.80;1.70;;;12.50;73.40;;;;;;4996317;28;20120;-88
2022/04/26 09:00:11;;;;;;;3.10;1.60;;;12.60;72.80;;;;;;5030217;28;20445;-87
2022/04/26 09:02:39;;;;;;;6.90;1.90;;;12.70;72.50;;;;;;5008047;28;20148;-89
2022/04/26 09:05:15;;;;;;;2.90;1.33;;;12.70;71.80;;;;;;4986587;28;20038;-87
2022/04/26 09:07:47;;;;;;;4.28;1.95;;;12.80;71.30;;;;;;5007199;28;20506;-88
2022/04/26 09:10:18;;;;;;;3.95;1.63;;;12.80;70.40;;;;;;5009594;28;20045;-88
2022/04/26 09:13:06;;;;;;;4.85;1.80;;;12.90;70.50;;;;;;4993905;28;20064;-88
2022/04/26 09:15:51;;;;;;;3.20;1.50;;;12.90;69.90;;;;;;4999692;28;20061;-89
2022/04/26 09:18:27;;;;;;;3.40;1.40;;;13.00;70.00;;;;;;5003679;28;20073;-88
2022/04/26 09:21:05;;;;;;;5.28;1.95;;;13.00;69.00;;;;;;5006885;28;20136;-90
2022/04/26 09:23:33;;;;;;;3.50;1.70;;;13.20;67.80;;;;;;4993471;28;20105;-89
2022/04/26 09:26:07;;;;;;;6.32;1.90;;;13.20;67.40;;;;;;4997044;28;20034;-88
2022/04/26 09:28:39;;;;;;;3.55;1.75;;;13.20;67.00;;;;;;4992935;28;20087;-88
2022/04/26 09:31:27;;;;;;;4.32;1.63;;;13.30;67.50;;;;;;5007437;28;20039;-87
2022/04/26 09:34:11;;;;;;;5.18;1.67;;;13.40;66.80;;;;;;5010253;28;20100;-86
2022/04/26 09:36:46;;;;;;;4.97;2.25;;;13.50;66.70;;;;;;4984771;28;20085;-88
2022/04/26 09:39:21;;;;;;;3.50;1.92;;;13.50;66.20;;;;;;5012542;28;20033;-88
2022/04/26 09:42:08;;;;;;;3.25;1.52;;;13.40;66.70;;;;;;4986703;28;20043;-86
2022/04/26 09:44:41;;;;;;;3.70;1.75;;;13.40;66.70;;;;;;5012829;28;20049;-90
2022/04/26 09:47:45;;;;;;;3.40;1.63;;;13.60;66.50;;;;;;5009431;28;20049;-88
2022/04/26 09:50:14;;;;;;;3.00;1.35;;;13.70;66.20;;;;;;4989085;28;20561;-88
2022/04/26 09:52:45;;;;;;;2.92;1.40;;;13.70;66.00;;;;;;4993055;28;20126;-87
2022/04/26 09:55:15;;;;;;;4.15;1.27;;;13.70;65.80;;;;;;4995373;28;20038;-86
2022/04/26 09:57:46;;;;;;;3.70;1.67;;;13.70;65.40;;;;;;5008798;28;20057;-87
2022/04/26 10:00:16;;;;;;;5.25;1.75;;;13.60;65.50;;;;;;4992630;28;20046;-88
2022/04/26 10:02:53;;;;;;;3.83;1.50;;;13.60;66.00;;;;;;4988076;28;20098;-88
2022/04/26 10:05:25;;;;;;;6.22;1.80;;;13.50;66.00;;;;;;4972614;28;20042;-88
2022/04/26 10:07:54;;;;;;;3.80;1.50;;;13.50;65.50;;;;;;5001786;28;20507;-87
2022/04/26 10:10:23;;;;;;;4.75;2.00;;;13.40;65.40;;;;;;5004986;28;20088;-87
2022/04/26 10:15:37;;;;;;;3.38;2.08;;;13.50;65.10;;;;;;5011614;28;20050;-87
2022/04/26 10:18:48;;;;;;;3.90;1.23;;;13.70;64.30;;;;;;5015233;28;20045;-89
2022/04/26 10:21:21;;;;;;;3.58;1.90;;;14.00;63.60;;;;;;4982217;28;20050;-90
2022/04/26 10:24:02;;;;;;;3.58;1.95;;;14.20;62.80;;;;;;5025334;28;20049;-89
2022/04/26 10:26:31;;;;;;;3.83;2.00;;;14.50;62.50;;;;;;5009688;28;20052;-89
2022/04/26 10:29:02;;;;;;;4.30;1.75;;;14.80;62.20;;;;;;4996518;28;20093;-88
2022/04/26 10:31:38;;;;;;;3.15;1.85;;;14.90;62.00;;;;;;4992744;28;20039;-90
2022/04/26 10:34:31;;;;;;;4.50;1.60;;;14.80;62.40;;;;;;4977667;28;20042;-90
2022/04/26 10:37:11;;;;;;;;;;;14.80;62.20;;;;;;4996789;28;20122;-90
2022/04/26 10:39:58;;;;;;;3.38;1.65;;;14.70;62.90;;;;;;4987812;28;19925;-90
2022/04/26 10:42:29;;;;;;;3.05;1.45;;;14.80;62.40;;;;;;4985829;28;20049;-88
2022/04/26 10:45:08;;;;;;;2.83;1.60;;;15.50;61.40;;;;;;5001249;28;20050;-88
2022/04/26 10:47:35;;;;;;;3.47;1.85;;;15.90;59.60;;;;;;4989357;28;20045;-89
2022/04/26 10:50:05;;;;;;;3.20;1.40;;;16.30;59.10;;;;;;4995106;28;20054;-90
2022/04/26 10:52:40;;;;;;;3.25;1.20;;;16.70;58.50;;;;;;4975071;28;20049;-90
2022/04/26 10:55:12;;;;;;;4.38;1.58;;;16.70;58.00;;;;;;4988550;28;20145;-89
2022/04/26 10:57:46;;;;;;;2.88;1.58;;;16.30;58.60;;;;;;5011092;28;20049;-90
2022/04/26 11:00:28;;;;;;;3.83;1.70;;;16.20;59.30;;;;;;5008920;28;20041;-89
2022/04/26 11:03:02;;;;;;;3.50;1.20;;;16.10;59.40;;;;;;4990766;28;20046;-89
2022/04/26 11:05:32;;;;;;;3.38;1.58;;;16.00;59.40;;;;;;4993390;28;20125;-90
2022/04/26 11:08:05;;;;;;;4.70;1.83;;;15.70;58.50;;;;;;5007680;28;20070;-90
2022/04/26 11:13:40;;;;;;;3.25;1.40;;;15.50;59.50;;;;;;5025575;28;20050;-92
2022/04/26 11:16:14;;;;;;;2.40;1.00;;;15.50;59.60;;;;;;5006501;28;20046;-91
2022/04/26 11:18:43;;;;;;;4.22;1.25;;;15.40;59.60;;;;;;5008563;28;20119;-89
2022/04/26 11:21:12;;;;;;;4.03;1.50;;;15.30;59.30;;;;;;5018344;28;20045;-90
2022/04/26 11:29:26;;;;;;;3.63;1.40;;;15.30;59.30;;;;;;5012738;28;20049;-88
2022/04/26 11:31:55;;;;;;;3.78;1.90;;;16.20;58.20;;;;;;4999529;28;20042;-90
2022/04/26 11:34:51;;;;;;;;;;;;;;;;;;;;;
2022/04/26 11:37:26;;;;;;;3.22;1.23;;;16.50;56.30;;;;;;5012458;28;20521;-91
2022/04/26 11:39:56;;;;;;;5.22;2.55;;;16.20;56.60;;;;;;5018478;28;20073;-90
2022/04/26 11:42:34;;;;;;;2.53;1.20;;;15.90;57.00;;;;;;5002946;28;20041;-92
2022/04/26 11:45:09;;;;;;;3.28;1.30;;;15.80;57.70;;;;;;5003842;28;20053;-91
2022/04/26 11:47:53;;;;;;;5.28;1.45;;;15.80;57.70;;;;;;5017839;28;20461;-93
2022/04/26 11:50:31;;;;;;;2.72;1.23;;;15.80;57.70;;;;;;4992520;28;20038;-92
2022/04/26 11:53:11;;;;;;;2.17;1.35;;;15.90;57.90;;;;;;5002277;28;20050;-93
2022/04/26 11:55:53;;;;;;;2.85;1.60;;;15.90;57.40;;;;;;4998374;28;20057;-92
2022/04/26 11:58:27;;;;;;;2.90;1.38;;;16.00;57.60;;;;;;4986721;28;20045;-89
2022/04/26 12:01:00;;;;;;;5.38;1.55;;;16.80;56.20;;;;;;5014280;28;20069;-92
2022/04/26 12:03:44;;;;;;;4.03;1.50;;;16.50;55.70;;;;;;5013062;28;20123;-91
2022/04/26 12:06:14;;;;;;;3.03;1.30;;;16.30;56.30;;;;;;4994130;28;20046;-90
2022/04/26 12:08:44;;;;;;;3.22;1.48;;;16.30;56.50;;;;;;4981129;28;20168;-91
2022/04/26 12:11:26;;;;;;;3.40;1.60;;;16.20;56.40;;;;;;4988472;28;20520;-91
2022/04/26 12:14:26;;;;;;;2.33;1.40;;;16.50;56.00;;;;;;4984211;28;20471;-84
2022/04/26 12:16:55;;;;;;;2.78;1.50;;;17.40;54.40;;;;;;4998600;28;20058;-86
2022/04/26 12:19:38;;;;;;;5.13;1.40;;;17.80;54.10;;;;;;5013520;28;20049;-85
2022/04/26 12:22:06;;;;;;;4.20;1.50;;;18.10;54.20;;;;;;4999293;28;20045;-85
2022/04/26 12:24:44;;;;;;;3.75;1.42;;;18.10;53.90;;;;;;5000537;28;20555;-87
2022/04/26 12:27:26;;;;;;;2.65;1.10;;;17.80;54.20;;;;;;5013537;28;20068;-88
2022/04/26 12:29:53;;;;;;;;;;;17.40;54.30;;;;;;5007561;28;20100;-89
2022/04/26 12:32:28;;;;;;;3.17;1.38;;;17.20;55.10;;;;;;4997519;28;19921;-84
2022/04/26 12:35:00;;;;;;;4.22;1.75;;;17.20;55.40;;;;;;4984555;28;20060;-89
2022/04/26 12:37:32;;;;;;;3.00;1.60;;;17.10;54.70;;;;;;4996910;28;20054;-87
2022/04/26 12:40:06;;;;;;;2.88;1.20;;;17.00;54.50;;;;;;5008407;28;20078;-89
2022/04/26 12:42:34;;;;;;;1.95;1.00;;;16.90;54.70;;;;;;5013259;28;20072;-88
2022/04/26 12:45:23;;;;;;;2.83;1.10;;;16.70;55.10;;;;;;4998968;28;20049;-84
2022/04/26 12:51:21;;;;;;;2.42;1.10;;;16.60;55.20;;;;;;5012329;28;20129;-85
2022/04/26 12:54:07;;;;;;;3.78;1.45;;;16.60;54.90;;;;;;4978197;28;20054;-90
2022/04/26 12:56:35;;;;;;;2.88;1.20;;;16.60;54.50;;;;;;5012181;28;20046;-86
2022/04/26 12:59:17;;;;;;;3.10;1.25;;;16.60;54.80;;;;;;4997399;28;20141;-89
2022/04/26 13:01:44;;;;;;;2.25;1.15;;;16.80;54.20;;;;;;5011062;28;20516;-85
2022/04/26 13:04:11;;;;;;;2.50;1.00;;;17.00;54.10;;;;;;4989562;28;20108;-84
2022/04/26 13:06:39;;;;;;;2.50;0.90;;;17.20;53.80;;;;;;5005907;28;20068;-85
2022/04/26 13:09:29;;;;;;;1.35;0.77;;;17.20;53.70;;;;;;5025883;28;20061;-90
2022/04/26 13:11:56;;;;;;;2.60;1.00;;;17.10;54.00;;;;;;4995522;28;20137;-87
2022/04/26 13:14:23;;;;;;;3.67;1.30;;;16.90;53.80;;;;;;5006458;28;20049;-88
2022/04/26 13:17:09;;;;;;;2.28;0.98;;;16.90;53.30;;;;;;4996979;28;20046;-87
2022/04/26 13:19:47;;;;;;;3.53;1.20;;;16.80;53.50;;;;;;4997141;28;20590;-86
2022/04/26 13:22:16;;;;;;;2.50;0.93;;;16.70;53.20;;;;;;4995366;28;20049;-84
2022/04/26 13:24:51;;;;;;;2.72;0.82;;;16.70;53.30;;;;;;5007443;28;20049;-87
2022/04/26 13:27:23;;;;;;;1.95;0.80;;;16.60;53.00;;;;;;5015167;28;20041;-84
2022/04/26 13:29:54;;;;;;;3.15;1.05;;;16.60;53.20;;;;;;4996075;28;20050;-88
2022/04/26 13:32:21;;;;;;;3.85;1.20;;;16.50;52.60;;;;;;4993570;28;20436;-83
2022/04/26 13:34:48;;;;;;;1.48;0.60;;;16.40;52.40;;;;;;5001553;28;20037;-83
2022/04/26 13:37:17;;;;;;;2.67;0.98;;;16.50;52.80;;;;;;4985262;28;20052;-85
2022/04/26 13:39:45;;;;;;;3.80;1.02;;;16.60;52.70;;;;;;5002993;28;20057;-84
2022/04/26 13:42:15;;;;;;;1.80;0.88;;;16.50;52.70;;;;;;4996600;28;20045;-84
2022/04/26 13:44:43;;;;;;;3.67;1.00;;;16.50;52.50;;;;;;5006610;28;20045;-84
2022/04/26 13:47:10;;;;;;;3.58;1.20;;;16.40;52.40;;;;;;4998734;28;20042;-84
2022/04/26 13:49:41;;;;;;;3.03;1.17;;;16.50;52.40;;;;;;5001467;28;20084;-84
2022/04/26 13:52:13;;;;;;;2.13;1.08;;;16.50;51.50;;;;;;5010080;28;20046;-84
2022/04/26 13:54:42;;;;;;;;;;;16.50;51.30;;;;;;5012028;28;20064;-88
2022/04/26 13:57:10;;;;;;;1.60;0.95;;;16.60;51.70;;;;;;5002387;28;19968;-88
2022/04/26 13:59:37;;;;;;;3.08;0.75;;;16.60;51.60;;;;;;5013242;28;20045;-83
2022/04/26 14:02:07;;;;;;;2.28;0.80;;;16.80;51.70;;;;;;5003853;28;20046;-89
2022/04/26 14:04:37;;;;;;;2.30;0.70;;;16.80;51.40;;;;;;5016904;28;20049;-85
2022/04/26 14:07:05;;;;;;;3.63;0.90;;;16.90;51.40;;;;;;5011936;28;20064;-82
2022/04/26 14:09:32;;;;;;;1.52;0.80;;;16.90;50.50;;;;;;5012857;28;20069;-81
2022/04/26 14:12:00;;;;;;;2.17;1.10;;;16.90;51.10;;;;;;5011729;28;20409;-82
2022/04/26 14:22:49;;;;;;;3.28;1.02;;;17.20;50.20;;;;;;4984654;28;20050;-90
2022/04/26 14:25:16;;;;;;;1.73;0.70;;;17.30;49.80;;;;;;5000856;28;20107;-85
2022/04/26 14:27:47;;;;;;;1.88;0.63;;;17.30;50.10;;;;;;5010882;28;20038;-81
2022/04/26 14:30:15;;;;;;;2.72;1.08;;;17.40;50.20;;;;;;4995165;28;20133;-87
2022/04/26 14:33:02;;;;;;;1.90;0.82;;;17.60;50.00;;;;;;4982087;28;20049;-88
2022/04/26 14:35:31;;;;;;;3.25;0.70;;;18.50;49.50;;;;;;5000773;28;20050;-86
2022/04/26 14:37:59;;;;;;;1.75;0.90;;;20.00;47.80;;;;;;5002496;28;20573;-90
2022/04/26 14:40:27;;;;;;;1.80;0.65;;;20.80;45.90;;;;;;4983193;28;20045;-89
2022/04/26 14:42:54;;;;;;;3.83;0.75;;;21.60;45.00;;;;;;5000482;28;20054;-86
2022/04/26 14:45:21;;;;;;;1.73;1.00;;;22.70;44.40;;;;;;4979027;28;20038;-87
2022/04/26 14:47:49;;;;;;;3.00;0.90;;;23.60;42.10;;;;;;4958423;28;20050;-86
2022/04/26 14:50:18;;;;;;;2.00;0.90;;;24.00;42.00;;;;;;4983619;28;20042;-84
2022/04/26 14:52:45;;;;;;;2.08;0.70;;;24.40;41.20;;;;;;4985569;28;20049;-84
2022/04/26 14:55:12;;;;;;;4.72;0.90;;;24.50;41.00;;;;;;4988391;28;20188;-83
2022/04/26 14:57:40;;;;;;;2.80;0.80;;;24.70;40.70;;;;;;4998723;28;20042;-89
2022/04/26 15:00:08;;;;;;;1.88;0.85;;;24.90;40.30;;;;;;4991703;28;20045;-86
2022/04/26 15:02:38;;;;;;;2.70;0.82;;;25.00;39.20;;;;;;4987350;28;20049;-84
2022/04/26 15:05:09;;;;;;;1.88;0.80;;;25.10;39.50;;;;;;4986403;28;20050;-89
2022/04/26 15:10:29;;;;;;;2.13;0.82;;;25.50;39.00;;;;;;4987598;28;20048;-92
2022/04/26 15:18:40;;;;;;;3.35;0.90;;;26.10;38.50;;;;;;5022060;28;20065;-89
2022/04/26 15:21:09;;;;;;;1.60;0.80;;;26.10;38.20;;;;;;4979833;28;20042;-85
2022/04/26 15:23:36;;;;;;;2.60;0.80;;;26.40;37.90;;;;;;4996777;28;20136;-90
2022/04/26 15:26:06;;;;;;;2.40;0.70;;;26.50;37.60;;;;;;4985202;28;20125;-89
2022/04/26 15:28:36;;;;;;;2.00;0.80;;;26.70;37.90;;;;;;4999049;28;20046;-89
2022/04/26 15:31:03;;;;;;;2.22;0.80;;;26.70;37.10;;;;;;5002754;28;20034;-88
2022/04/26 15:33:30;;;;;;;2.85;0.90;;;26.30;36.20;;;;;;4991519;28;20041;-90
2022/04/26 15:36:00;;;;;;;1.45;0.60;;;26.30;37.10;;;;;;4995986;28;20065;-91
2022/04/26 15:38:27;;;;;;;1.98;0.70;;;26.60;37.10;;;;;;5002620;28;20065;-91
2022/04/26 15:41:06;;;;;;;1.70;0.65;;;26.90;37.00;;;;;;4970261;28;20050;-88
2022/04/26 15:43:36;;;;;;;1.92;0.70;;;27.00;37.20;;;;;;5007669;28;20045;-91
2022/04/26 15:46:27;;;;;;;1.13;0.52;;;27.20;36.20;;;;;;5005300;28;20030;-85
2022/04/26 15:49:02;;;;;;;1.27;0.60;;;27.10;36.50;;;;;;4970576;28;20045;-86
2022/04/26 15:51:30;;;;;;;4.45;1.50;;;27.20;36.70;;;;;;5007372;28;20046;-85
2022/04/26 15:53:57;;;;;;;2.35;0.77;;;26.80;35.40;;;;;;4997486;28;20061;-83
2022/04/26 15:56:24;;;;;;;2.20;0.88;;;26.60;36.00;;;;;;4981485;28;20046;-87
2022/04/26 15:58:51;;;;;;;1.20;0.65;;;26.60;36.10;;;;;;4981546;28;20046;-88
2022/04/26 16:01:18;;;;;;;1.38;0.70;;;26.90;36.30;;;;;;5000708;28;20113;-82
2022/04/26 16:03:45;;;;;;;3.03;0.70;;;26.90;35.80;;;;;;4997667;28;20056;-85
2022/04/26 16:06:13;;;;;;;1.15;0.50;;;27.00;36.00;;;;;;4994243;28;20461;-84
2022/04/26 16:08:40;;;;;;;1.80;0.70;;;27.30;36.00;;;;;;4975660;28;20050;-84
2022/04/26 16:22:42;;;;;;;2.10;0.88;;;25.30;36.10;;;;;;5013246;28;20045;-85
2022/04/26 16:25:09;;;;;;;1.85;0.70;;;24.60;36.30;;;;;;5009701;28;20046;-85
2022/04/26 16:27:37;;;;;;;2.08;0.82;;;24.10;36.90;;;;;;5001303;28;20548;-84
2022/04/26 16:30:04;;;;;;;1.73;0.70;;;23.60;37.10;;;;;;4974675;28;20034;-84
2022/04/26 16:32:33;;;;;;;1.50;0.80;;;23.70;37.30;;;;;;4982612;28;20050;-89
2022/04/26 16:35:00;;;;;;;2.08;0.85;;;23.30;37.40;;;;;;5005166;28;20050;-88
2022/04/26 16:37:28;;;;;;;2.55;0.98;;;22.40;37.80;;;;;;4994141;28;20470;-82
2022/04/26 16:39:55;;;;;;;1.95;0.70;;;21.30;39.00;;;;;;4996789;28;20046;-81
2022/04/26 16:42:22;;;;;;;1.85;0.80;;;20.40;40.20;;;;;;4994930;28;20179;-87
2022/04/26 16:44:49;;;;;;;5.18;1.40;;;19.60;41.10;;;;;;4980298;28;20116;-86
2022/04/26 16:47:16;;;;;;;3.05;1.10;;;19.40;41.40;;;;;;4996124;28;20054;-86
2022/04/26 16:49:44;;;;;;;2.22;0.88;;;19.10;41.40;;;;;;4978533;28;20046;-84
2022/04/26 16:52:12;;;;;;;6.72;3.33;;;18.70;41.70;;;;;;4979733;28;20057;-83
2022/04/26 16:54:39;;;;;;;4.63;2.42;;;18.30;42.60;;;;;;4982320;28;20045;-84
2022/04/26 16:57:07;;;;;;;2.65;1.52;;;18.60;42.40;;;;;;4995458;28;20152;-85
2022/04/26 16:59:34;;;;;;;4.32;1.67;;;18.60;42.30;;;;;;5003642;28;20551;-85
2022/04/26 17:02:01;;;;;;;3.47;1.13;;;18.60;42.50;;;;;;4996398;28;20038;-87
2022/04/26 17:04:33;;;;;;;3.42;1.13;;;18.60;42.20;;;;;;4996755;28;20046;-90
2022/04/26 17:07:04;;;;;;;2.67;0.85;;;18.90;42.20;;;;;;4996014;28;20089;-92
2022/04/26 17:09:42;;;;;;;1.77;0.85;;;19.30;41.70;;;;;;4992518;28;20066;-84
2022/04/26 17:12:12;;;;;;;1.50;0.77;;;20.00;41.20;;;;;;5011761;28;20034;-86
2022/04/26 17:14:41;;;;;;;1.65;0.60;;;20.50;40.60;;;;;;4979791;28;20498;-87
2022/04/26 17:17:11;;;;;;;1.20;0.57;;;20.70;40.20;;;;;;4995395;28;20046;-91
2022/04/26 17:19:49;;;;;;;;;;;;;;;;;;;;;
2022/04/26 17:22:33;;;;;;;1.02;0.55;;;21.00;39.90;;;;;;5013793;28;20548;-89
2022/04/26 17:28:23;;;;;;;1.92;0.70;;;21.20;39.70;;;;;;4981417;28;20070;-90
2022/04/26 17:30:50;;;;;;;2.00;0.70;;;21.40;39.70;;;;;;4967740;28;20101;-86
2022/04/26 17:33:20;;;;;;;1.15;0.52;;;21.10;38.50;;;;;;4986088;28;20035;-87
2022/04/26 17:35:50;;;;;;;2.63;0.65;;;20.20;39.50;;;;;;4976501;28;20045;-87
2022/04/26 17:38:17;;;;;;;2.22;0.90;;;19.20;40.50;;;;;;4996039;28;20052;-93
2022/04/26 17:40:52;;;;;;;2.10;0.57;;;18.50;41.50;;;;;;4996642;28;20145;-94
2022/04/26 17:43:29;;;;;;;1.58;0.52;;;17.80;42.30;;;;;;4993944;28;20127;-86
2022/04/26 17:46:11;;;;;;;1.90;0.75;;;17.20;43.00;;;;;;4993232;28;20099;-90
2022/04/26 17:48:49;;;;;;;;;;;;;;;;;;;;;
2022/04/26 17:51:20;;;;;;;1.83;0.52;;;16.30;44.10;;;;;;5008043;28;20042;-94
2022/04/26 17:56:40;;;;;;;2.80;0.50;;;15.70;45.00;;;;;;4997688;28;20046;-88
2022/04/26 17:59:07;;;;;;;1.63;0.50;;;15.40;45.00;;;;;;4993349;28;20443;-86
2022/04/26 18:01:36;;;;;;;2.20;0.70;;;15.30;45.50;;;;;;4984520;28;20041;-87
2022/04/26 18:04:05;;;;;;;2.20;0.55;;;15.10;45.60;;;;;;5005353;28;20410;-84
2022/04/26 18:06:32;;;;;;;1.13;0.55;;;14.90;45.60;;;;;;4993461;28;20133;-87
2022/04/26 18:09:00;;;;;;;3.08;0.40;;;14.80;45.90;;;;;;4995514;28;20038;-88
2022/04/26 18:11:32;;;;;;;1.50;0.50;;;14.60;46.00;;;;;;4984630;28;20088;-85
2022/04/26 18:14:02;;;;;;;1.40;0.60;;;14.50;46.20;;;;;;4984927;28;20046;-83